Time;durP1;ratioP1;P1;durP2;ratioP2;P2;SDS_P1;SDS_P2;PMS_P1;PMS_P2;Temp;Humidity;BMP_temperature;BMP_pressure;BME280_temperature;BME280_humidity;BME280_pressure;Samples;Min_cycle;Max_cycle;Signal;HPM_P1;HPM_P2
2023/07/19 00:00:42;;;;;;;;;;;;;;;-140.72;0.00;52482.16;5092402;28;19920;-74
2023/07/19 00:03:07;;;;;;;;;;;;;;;-140.72;0.00;52478.13;5101682;28;19932;-74
2023/07/19 00:05:33;;;;;;;;;;;;;;;-140.72;0.00;52502.47;5091339;28;19930;-74
2023/07/19 00:07:58;;;;;;;;;;;;;;;-140.72;0.00;52486.22;5095837;28;19965;-73
2023/07/19 00:10:23;;;;;;;;;;;;;;;-140.72;0.00;52516.66;5091150;28;19951;-73
2023/07/19 00:12:49;;;;;;;;;;;;;;;-140.72;0.00;52478.13;5098394;28;19930;-74
2023/07/19 00:15:14;;;;;;;;;;;;;;;-140.72;0.00;52492.31;5090191;28;19927;-73
2023/07/19 00:17:41;;;;;;;;;;;;;;;-140.72;0.00;52512.59;5091080;28;19921;-74
2023/07/19 00:20:07;;;;;;;;;;;;;;;-140.72;0.00;52528.84;5076917;28;19916;-73
2023/07/19 00:22:32;;;;;;;;;;;;;;;-140.72;0.00;52476.09;5085848;28;19920;-74
2023/07/19 00:24:57;;;;;;;;;;;;;;;-140.72;0.00;52472.03;5090544;28;19920;-73
2023/07/19 00:27:24;;;;;;;;;;;;;;;-140.72;0.00;52486.22;5083604;28;19928;-74
2023/07/19 00:29:49;;;;;;;;;;;;;;;-140.72;0.00;52490.28;5092173;28;20388;-74
2023/07/19 00:32:15;;;;;;;;;;;;;;;-140.72;0.00;52504.50;5090997;28;20025;-74
2023/07/19 00:34:40;;;;;;;;;;;;;;;-140.72;0.00;52504.50;5093434;28;20303;-74
2023/07/19 00:37:05;;;;;;;;;;;;;;;-140.72;0.00;52512.59;5088961;28;19939;-74
2023/07/19 00:39:30;;;;;;;;;;;;;;;-140.72;0.00;52474.06;5089750;28;20265;-75
2023/07/19 00:41:56;;;;;;;;;;;;;;;-140.72;0.00;52463.91;5073502;28;19966;-74
2023/07/19 00:44:22;;;;;;;;;;;;;;;-140.72;0.00;52476.09;5097790;28;19926;-75
2023/07/19 00:46:47;;;;;;;;;;;;;;;-140.72;0.00;52478.13;5088753;28;19920;-73
2023/07/19 00:49:13;;;;;;;;;;;;;;;-140.72;0.00;52500.44;5093839;28;20346;-74
2023/07/19 00:51:38;;;;;;;;;;;;;;;-140.72;0.00;52494.34;5077656;28;19924;-74
2023/07/19 00:54:05;;;;;;;;;;;;;;;-140.72;0.00;52455.78;5091835;28;19947;-74
2023/07/19 00:56:32;;;;;;;;;;;;;;;-140.72;0.00;52492.31;5091152;28;19917;-74
2023/07/19 00:58:57;;;;;;;;;;;;;;;-140.72;0.00;52496.38;5090757;28;19920;-74
2023/07/19 01:01:23;;;;;;;;;;;;;;;-140.72;0.00;52476.09;5074434;28;20289;-74
2023/07/19 01:03:48;;;;;;;;;;;;;;;-140.72;0.00;52463.91;5090794;28;19993;-74
2023/07/19 01:06:13;;;;;;;;;;;;;;;-140.72;0.00;52496.38;5069912;28;19928;-74
2023/07/19 01:08:39;;;;;;;;;;;;;;;-140.72;0.00;52500.44;5077148;28;20093;-74
2023/07/19 01:11:04;;;;;;;;;;;;;;;-140.72;0.00;52492.31;5091533;28;19924;-74
2023/07/19 01:13:29;;;;;;;;;;;;;;;-140.72;0.00;52476.09;5077439;28;20324;-74
2023/07/19 01:15:55;;;;;;;;;;;;;;;-140.72;0.00;52486.22;5065977;28;19927;-74
2023/07/19 01:18:20;;;;;;;;;;;;;;;-140.72;0.00;52467.97;5080630;28;19924;-74
2023/07/19 01:20:46;;;;;;;;;;;;;;;-140.72;0.00;52508.56;5092456;28;19920;-74
2023/07/19 01:23:11;;;;;;;;;;;;;;;-140.72;0.00;52472.03;5094243;28;19961;-74
2023/07/19 01:25:37;;;;;;;;;;;;;;;-140.72;0.00;52484.19;5078126;28;19927;-74
2023/07/19 01:28:02;;;;;;;;;;;;;;;-140.72;0.00;52472.03;5095353;28;19981;-74
2023/07/19 01:30:28;;;;;;;;;;;;;;;-140.72;0.00;52482.16;5087474;28;20007;-73
2023/07/19 01:32:53;;;;;;;;;;;;;;;-140.72;0.00;52498.41;5078050;28;20007;-74
2023/07/19 01:35:18;;;;;;;;;;;;;;;-140.72;0.00;52482.16;5083771;28;19946;-73
2023/07/19 01:37:43;;;;;;;;;;;;;;;-140.72;0.00;52476.09;5085091;28;19959;-74
2023/07/19 01:40:11;;;;;;;;;;;;;;;-140.72;0.00;52492.31;5091421;28;19943;-74
2023/07/19 01:42:36;;;;;;;;;;;;;;;-140.72;0.00;52508.56;5081791;28;19924;-72
2023/07/19 01:45:01;;;;;;;;;;;;;;;-140.72;0.00;52516.66;5070000;28;20399;-72
2023/07/19 01:47:27;;;;;;;;;;;;;;;-140.72;0.00;52504.50;5093263;28;19920;-73
2023/07/19 01:49:52;;;;;;;;;;;;;;;-140.72;0.00;52494.34;5089235;28;19927;-73
2023/07/19 01:52:17;;;;;;;;;;;;;;;-140.72;0.00;52484.19;5092652;28;19928;-72
2023/07/19 01:54:43;;;;;;;;;;;;;;;-140.72;0.00;52486.22;5092364;28;19973;-72
2023/07/19 01:57:08;;;;;;;;;;;;;;;-140.72;0.00;52530.88;5081775;28;19917;-73
2023/07/19 01:59:33;;;;;;;;;;;;;;;-140.72;0.00;52500.44;5094971;28;19927;-73
2023/07/19 02:01:58;;;;;;;;;;;;;;;-140.72;0.00;52480.16;5086399;28;19927;-73
2023/07/19 02:04:24;;;;;;;;;;;;;;;-140.72;0.00;52516.66;5097047;28;20274;-73
2023/07/19 02:06:49;;;;;;;;;;;;;;;-140.72;0.00;52476.09;5088948;28;20332;-73
2023/07/19 02:09:14;;;;;;;;;;;;;;;-140.72;0.00;52524.78;5097213;28;19920;-72
2023/07/19 02:11:40;;;;;;;;;;;;;;;-140.72;0.00;52496.38;5087426;28;19927;-74
2023/07/19 02:14:06;;;;;;;;;;;;;;;-140.72;0.00;52476.09;5079974;28;20355;-73
2023/07/19 02:16:31;;;;;;;;;;;;;;;-140.72;0.00;52492.31;5073436;28;19920;-73
2023/07/19 02:18:56;;;;;;;;;;;;;;;-140.72;0.00;52494.34;5087936;28;19920;-73
2023/07/19 02:21:22;;;;;;;;;;;;;;;-140.72;0.00;52512.59;5092956;28;20061;-73
2023/07/19 02:23:47;;;;;;;;;;;;;;;-140.72;0.00;52480.16;5071764;28;20015;-72
2023/07/19 02:26:12;;;;;;;;;;;;;;;-140.72;0.00;52510.59;5099759;28;19920;-73
2023/07/19 02:28:38;;;;;;;;;;;;;;;-140.72;0.00;52518.69;5094281;28;19924;-73
2023/07/19 02:31:03;;;;;;;;;;;;;;;-140.72;0.00;52504.50;5073074;28;19923;-73
2023/07/19 02:33:33;;;;;;;;;;;;;;;-140.72;0.00;52520.72;5082407;28;19965;-73
2023/07/19 02:35:59;;;;;;;;;;;;;;;-140.72;0.68;52516.66;5092402;28;20107;-74
2023/07/19 02:38:25;;;;;;;;;;;;;;;-140.72;2.77;52506.53;5073477;28;20444;-74
2023/07/19 02:43:53;;;;;;;;;;;;;;;-140.72;16.90;52532.91;5086008;28;19923;-74
2023/07/19 02:46:20;;;;;;;;;;;;;;;-140.72;18.40;52543.03;5081099;28;19920;-74
2023/07/19 02:48:45;;;;;;;;;;;;;;;-140.72;23.57;52551.16;5102454;28;20056;-74
2023/07/19 02:51:10;;;;;;;;;;;;;;;-140.72;21.96;52490.28;5081888;28;19929;-74
2023/07/19 02:53:37;;;;;;;;;;;;;;;-140.72;26.09;52539.00;5089686;28;19924;-74
2023/07/19 02:56:02;;;;;;;;;;;;;;;-140.72;34.64;52532.91;5078126;28;19923;-74
2023/07/19 02:58:27;;;;;;;;;;;;;;;-140.72;40.32;52520.72;5079758;28;19916;-74
2023/07/19 03:00:53;;;;;;;;;;;;;;;-140.72;49.87;52516.66;5089997;28;19963;-74
2023/07/19 03:03:19;;;;;;;;;;;;;;;-140.72;58.01;52520.72;5079581;28;20011;-74
2023/07/19 03:05:44;;;;;;;;;;;;;;;-140.72;51.52;52524.78;5105612;28;19973;-74
2023/07/19 03:08:09;;;;;;;;;;;;;;;-140.72;50.80;52549.13;5093790;28;19942;-74
2023/07/19 03:10:35;;;;;;;;;;;;;;;-140.72;64.47;52528.84;5094031;28;19920;-73
2023/07/19 03:13:00;;;;;;;;;;;;;;;-140.72;67.48;52502.47;5084230;28;19969;-74
2023/07/19 03:15:27;;;;;;;;;;;;;;;-140.72;60.50;52555.22;5094343;28;20362;-74
2023/07/19 03:17:53;;;;;;;;;;;;;;;-140.72;73.85;52528.84;5095537;28;20304;-74
2023/07/19 03:20:38;;;;;;;;;;;;;;;-140.72;100.00;52541.03;5084305;28;19920;-73
2023/07/19 03:23:03;;;;;;;;;;;;;;;-140.72;100.00;52528.84;5095332;28;19916;-74
2023/07/19 03:28:45;;;;;;;;;;;;;;;-140.72;100.00;52536.97;5067763;28;20015;-74
2023/07/19 03:31:11;;;;;;;;;;;;;;;-140.72;100.00;52543.03;5061036;28;19921;-74
2023/07/19 03:33:36;;;;;;;;;;;;;;;-140.72;100.00;52498.41;5068080;28;19916;-74
2023/07/19 03:36:01;;;;;;;;;;;;;;;-140.72;100.00;52565.38;5086894;28;20323;-74
2023/07/19 03:38:26;;;;;;;;;;;;;;;-140.72;100.00;52543.03;5071221;28;19924;-73
2023/07/19 03:40:54;;;;;;;;;;;;;;;-140.72;100.00;52551.16;5062961;28;19917;-74
2023/07/19 03:43:19;;;;;;;;;;;;;;;-140.72;100.00;52530.88;5069479;28;19927;-74
2023/07/19 03:45:44;;;;;;;;;;;;;;;-140.72;100.00;52530.88;5060500;28;19916;-74
2023/07/19 03:48:11;;;;;;;;;;;;;;;-140.72;100.00;52597.84;5058595;28;20328;-74
2023/07/19 03:50:37;;;;;;;;;;;;;;;-140.72;100.00;52539.00;5070369;28;20212;-74
2023/07/19 03:53:04;;;;;;;;;;;;;;;-140.72;100.00;52508.56;5058932;28;19971;-74
2023/07/19 03:55:29;;;;;;;;;;;;;;;-140.72;100.00;52522.75;5071878;28;19928;-73
2023/07/19 03:57:54;;;;;;;;;;;;;;;-140.72;100.00;52553.19;5071962;28;19917;-73
2023/07/19 04:00:20;;;;;;;;;;;;;;;-140.72;100.00;52539.00;5058085;28;19917;-74
2023/07/19 04:05:48;;;;;;;;;;;;;;;-140.72;100.00;52545.06;5068171;28;19927;-73
2023/07/19 04:08:14;;;;;;;;;;;;;;;-140.72;98.77;52549.13;5064902;28;19917;-74
2023/07/19 04:10:39;;;;;;;;;;;;;;;-140.72;100.00;52565.38;5066303;28;19947;-74
2023/07/19 04:13:04;;;;;;;;;;;;;;;-140.72;100.00;52524.78;5063693;28;20706;-73
2023/07/19 04:15:30;;;;;;;;;;;;;;;-140.72;100.00;52547.09;5065643;28;19984;-74
2023/07/19 04:17:55;;;;;;;;;;;;;;;-140.72;100.00;52512.59;5072896;28;19928;-74
2023/07/19 04:20:21;;;;;;;;;;;;;;;-140.72;99.48;52591.75;5062208;28;20003;-74
2023/07/19 04:22:46;;;;;;;;;;;;;;;-140.72;100.00;52575.50;5075132;28;20447;-73
2023/07/19 04:25:11;;;;;;;;;;;;;;;-140.72;97.53;52526.81;5071700;28;19924;-74
2023/07/19 04:27:36;;;;;;;;;;;;;;;-140.72;91.57;52504.50;5077615;28;19927;-75
2023/07/19 04:30:02;;;;;;;;;;;;;;;-140.72;94.85;52508.56;5084104;28;20366;-74
2023/07/19 04:32:27;;;;;;;;;;;;;;;-140.72;96.34;52559.28;5081811;28;19920;-74
2023/07/19 04:34:53;;;;;;;;;;;;;;;-140.72;97.11;52492.31;5080219;28;19916;-74
2023/07/19 04:37:18;;;;;;;;;;;;;;;-140.72;96.41;52561.31;5100619;28;19955;-73
2023/07/19 04:39:43;;;;;;;;;;;;;;;-140.72;100.00;52549.13;5082651;28;19926;-73
2023/07/19 04:42:21;;;;;;;;;;;;;;;-140.72;100.00;52561.31;5081669;28;20300;-73
2023/07/19 04:44:47;;;;;;;;;;;;;;;-140.72;100.00;52557.25;5067525;28;20007;-74
2023/07/19 04:47:12;;;;;;;;;;;;;;;-140.72;98.42;52545.06;5090261;28;21816;-74
2023/07/19 04:49:38;;;;;;;;;;;;;;;-140.72;100.00;52530.88;5092041;28;20110;-78
2023/07/19 04:52:03;;;;;;;;;;;;;;;-140.72;100.00;52488.25;5078229;28;19928;-81
2023/07/19 04:54:31;;;;;;;;;;;;;;;-140.72;96.94;52551.16;5118484;27;19919;-80
2023/07/19 04:56:56;;;;;;;;;;;;;;;-140.72;94.48;52514.63;5086482;28;20374;-81
2023/07/19 04:59:21;;;;;;;;;;;;;;;-140.72;89.74;52512.59;5076063;28;19940;-80
2023/07/19 05:01:47;;;;;;;;;;;;;;;-140.72;89.12;52522.75;5077804;28;19978;-81
2023/07/19 05:04:12;;;;;;;;;;;;;;;-140.72;85.74;52492.31;5081949;28;19920;-80
2023/07/19 05:06:58;;;;;;;;;;;;;;;-140.72;80.16;52508.56;5099427;28;19920;-81
2023/07/19 05:09:23;;;;;;;;;;;;;;;-140.72;69.22;52508.56;5067625;28;19939;-79
2023/07/19 05:11:49;;;;;;;;;;;;;;;-140.72;63.97;52512.59;5075255;28;19930;-79
2023/07/19 05:14:14;;;;;;;;;;;;;;;-140.72;61.49;52518.69;5078108;28;20442;-78
2023/07/19 05:16:39;;;;;;;;;;;;;;;-140.72;52.71;52510.59;5073642;28;19927;-77
2023/07/19 05:19:06;;;;;;;;;;;;;;;-140.72;47.03;52480.16;5071302;28;19923;-77
2023/07/19 05:21:31;;;;;;;;;;;;;;;-140.72;45.02;52494.34;5085409;28;19966;-78
2023/07/19 05:23:56;;;;;;;;;;;;;;;-140.72;41.09;52528.84;5093592;28;19981;-78
2023/07/19 05:26:21;;;;;;;;;;;;;;;-140.72;32.84;52480.16;5095218;28;19928;-79
2023/07/19 05:28:47;;;;;;;;;;;;;;;-140.72;29.80;52490.28;5075648;28;19920;-80
2023/07/19 05:31:12;;;;;;;;;;;;;;;-140.72;26.52;52467.97;5092615;28;20238;-78
2023/07/19 05:33:37;;;;;;;;;;;;;;;-140.72;18.24;52467.97;5070196;28;19955;-73
2023/07/19 05:36:03;;;;;;;;;;;;;;;-140.72;14.32;52520.72;5099820;28;20331;-72
2023/07/19 05:38:28;;;;;;;;;;;;;;;-140.72;9.45;52494.34;5104449;28;19927;-73
2023/07/19 05:41:00;;;;;;;;;;;;;;;-140.72;3.42;52472.03;5092535;28;20321;-73
2023/07/19 05:43:26;;;;;;;;;;;;;;;-140.72;0.66;52461.88;5086794;28;19917;-73
2023/07/19 05:45:51;;;;;;;;;;;;;;;-140.72;1.37;52476.09;5093844;28;19927;-73
2023/07/19 05:48:16;;;;;;;;;;;;;;;-140.72;0.00;52512.59;5081065;28;19973;-72
2023/07/19 05:50:42;;;;;;;;;;;;;;;-140.72;1.99;52500.44;5086940;28;19921;-73
2023/07/19 05:53:07;;;;;;;;;;;;;;;-140.72;0.08;52508.56;5088188;28;20026;-72
2023/07/19 05:55:32;;;;;;;;;;;;;;;-140.72;0.00;52467.97;5085382;28;19923;-72
2023/07/19 05:57:58;;;;;;;;;;;;;;;-140.72;0.00;52478.13;5084268;28;19927;-72
2023/07/19 06:00:28;;;;;;;;;;;;;;;-140.72;0.00;52498.41;5089131;28;20339;-72
2023/07/19 06:02:57;;;;;;;;;;;;;;;-140.72;0.00;52484.19;5069348;28;19993;-72
2023/07/19 06:05:23;;;;;;;;;;;;;;;-140.72;0.00;52484.19;5098003;28;19939;-72
2023/07/19 06:07:49;;;;;;;;;;;;;;;-140.72;0.00;52484.19;5086440;28;19987;-72
2023/07/19 06:10:15;;;;;;;;;;;;;;;-140.72;0.00;52472.03;5090643;28;20661;-73
2023/07/19 06:12:42;;;;;;;;;;;;;;;-140.72;0.00;52465.94;5072944;28;19968;-74
2023/07/19 06:15:08;;;;;;;;;;;;;;;-140.72;0.00;52467.97;5087076;28;19926;-72
2023/07/19 06:17:33;;;;;;;;;;;;;;;-140.72;0.00;52488.25;5083569;28;20749;-71
2023/07/19 06:19:58;;;;;;;;;;;;;;;-140.72;0.00;52467.97;5095740;28;19924;-72
2023/07/19 06:22:24;;;;;;;;;;;;;;;-140.72;0.00;52447.69;5091980;28;19920;-72
2023/07/19 06:24:50;;;;;;;;;;;;;;;-140.72;0.00;52441.59;5091699;28;19922;-77
2023/07/19 06:27:16;;;;;;;;;;;;;;;-140.72;0.00;52421.28;5077273;28;22337;-77
2023/07/19 06:29:42;;;;;;;;;;;;;;;-140.72;0.00;52447.69;5078648;28;20401;-78
2023/07/19 06:32:07;;;;;;;;;;;;;;;-140.72;0.00;52467.97;5080436;28;19929;-78
2023/07/19 06:34:36;;;;;;;;;;;;;;;-140.72;0.00;52443.63;5096226;28;19920;-74
2023/07/19 06:37:02;;;;;;;;;;;;;;;-140.72;0.00;52417.25;5087630;28;19916;-76
2023/07/19 06:39:28;;;;;;;;;;;;;;;-140.72;0.00;52433.47;5080063;28;19930;-75
2023/07/19 06:41:54;;;;;;;;;;;;;;;-140.72;0.00;52411.16;5086141;28;19995;-75
2023/07/19 06:44:19;;;;;;;;;;;;;;;-140.72;0.00;52435.50;5095510;28;20358;-75
2023/07/19 06:46:44;;;;;;;;;;;;;;;-140.72;0.00;52433.47;5092879;28;19947;-76
2023/07/19 06:49:10;;;;;;;;;;;;;;;-140.72;0.00;52451.72;5066459;28;19952;-75
2023/07/19 06:51:35;;;;;;;;;;;;;;;-140.72;0.00;52419.28;5095592;28;19917;-75
2023/07/19 06:54:00;;;;;;;;;;;;;;;-140.72;0.00;52427.38;5076307;28;19935;-75
2023/07/19 06:56:25;;;;;;;;;;;;;;;-140.72;0.00;52425.34;5086338;28;19939;-75
2023/07/19 06:58:54;;;;;;;;;;;;;;;-140.72;0.00;52461.88;5094561;28;20408;-75
2023/07/19 07:01:19;;;;;;;;;;;;;;;-140.72;0.00;52431.44;5095045;28;19924;-73
2023/07/19 07:03:44;;;;;;;;;;;;;;;-140.72;0.00;52431.44;5089868;28;20558;-75
2023/07/19 07:06:15;;;;;;;;;;;;;;;-140.72;0.00;52417.25;5107751;28;20002;-73
2023/07/19 07:08:40;;;;;;;;;;;;;;;-140.72;0.00;52419.28;5073099;28;19923;-74
2023/07/19 07:11:06;;;;;;;;;;;;;;;-140.72;0.00;52455.78;5066323;28;20004;-75
2023/07/19 07:13:31;;;;;;;;;;;;;;;-140.72;0.00;52449.72;5081848;28;20015;-73
2023/07/19 07:15:58;;;;;;;;;;;;;;;-140.72;0.00;52403.03;5087245;28;19928;-74
2023/07/19 07:18:23;;;;;;;;;;;;;;;-140.72;0.00;52409.13;5086532;28;19916;-76
2023/07/19 07:20:51;;;;;;;;;;;;;;;-140.72;0.00;52390.84;5094652;28;19935;-74
2023/07/19 07:23:17;;;;;;;;;;;;;;;-140.72;0.00;52398.97;5083478;28;20039;-72
2023/07/19 07:25:42;;;;;;;;;;;;;;;-140.72;0.00;52358.41;5094354;28;19923;-73
2023/07/19 07:28:08;;;;;;;;;;;;;;;-140.72;0.00;52386.81;5084832;28;19921;-72
2023/07/19 07:30:34;;;;;;;;;;;;;;;-140.72;0.00;52390.84;5097344;28;20002;-72
2023/07/19 07:32:59;;;;;;;;;;;;;;;-140.72;0.00;52372.59;5087879;28;19920;-72
2023/07/19 07:35:25;;;;;;;;;;;;;;;-140.72;0.00;52374.63;5087268;28;20025;-72
2023/07/19 07:37:50;;;;;;;;;;;;;;;-140.72;0.00;52403.03;5092965;28;19916;-72
2023/07/19 07:40:16;;;;;;;;;;;;;;;-140.72;0.00;52413.19;5092311;28;20297;-72
2023/07/19 07:42:41;;;;;;;;;;;;;;;-140.72;0.00;52401.00;5094740;28;19999;-73
2023/07/19 07:45:07;;;;;;;;;;;;;;;-140.72;0.00;52415.22;5094058;28;19916;-73
2023/07/19 07:47:33;;;;;;;;;;;;;;;-140.72;0.00;52427.38;5078527;28;19931;-72
2023/07/19 07:50:00;;;;;;;;;;;;;;;-140.72;0.00;52427.38;5097693;28;19916;-73
2023/07/19 07:52:26;;;;;;;;;;;;;;;-140.72;0.00;52386.81;5106422;28;19916;-72
2023/07/19 07:54:51;;;;;;;;;;;;;;;-140.72;0.00;52405.06;5089230;28;19931;-73
2023/07/19 07:57:17;;;;;;;;;;;;;;;-140.72;0.00;52390.84;5083579;28;19924;-73
2023/07/19 07:59:42;;;;;;;;;;;;;;;-140.72;0.00;52392.88;5098004;28;19931;-73
2023/07/19 08:02:07;;;;;;;;;;;;;;;-140.72;0.00;52327.97;5082639;28;20365;-72
2023/07/19 08:04:33;;;;;;;;;;;;;;;-140.72;0.00;52354.34;5072954;28;19916;-72
2023/07/19 08:06:58;;;;;;;;;;;;;;;-140.72;0.00;52342.16;5076985;28;19928;-72
2023/07/19 08:09:23;;;;;;;;;;;;;;;-140.72;0.00;52303.59;5095038;28;19978;-72
2023/07/19 08:11:48;;;;;;;;;;;;;;;-140.72;0.00;52309.69;5075549;28;19935;-72
2023/07/19 08:14:14;;;;;;;;;;;;;;;-140.72;0.00;52338.09;5094488;28;19924;-72
2023/07/19 08:16:39;;;;;;;;;;;;;;;-140.72;0.00;52356.38;5094866;28;20385;-72
2023/07/19 08:19:04;;;;;;;;;;;;;;;-140.72;0.00;52340.13;5075400;28;20001;-73
2023/07/19 08:21:29;;;;;;;;;;;;;;;-140.72;0.00;52362.44;5086911;28;20477;-72
2023/07/19 08:23:55;;;;;;;;;;;;;;;-140.72;0.00;52323.91;5093778;28;19964;-73
2023/07/19 08:26:21;;;;;;;;;;;;;;;-140.72;0.00;52352.31;5093881;28;20284;-73
2023/07/19 08:28:46;;;;;;;;;;;;;;;-140.72;0.00;52285.34;5094593;28;19916;-72
2023/07/19 08:31:12;;;;;;;;;;;;;;;-140.72;0.00;52321.88;5106733;28;20304;-72
2023/07/19 08:33:37;;;;;;;;;;;;;;;-140.72;0.00;52330.00;5088617;28;19920;-73
2023/07/19 08:36:02;;;;;;;;;;;;;;;-140.72;0.00;52301.59;5099150;28;19930;-72
2023/07/19 08:38:27;;;;;;;;;;;;;;;-140.72;0.00;52271.16;5080805;28;20094;-72
2023/07/19 08:40:56;;;;;;;;;;;;;;;-140.72;0.00;52273.19;5093386;28;19922;-73
2023/07/19 08:43:25;;;;;;;;;;;;;;;-140.72;0.00;52307.66;5101957;28;19916;-73
2023/07/19 08:45:50;;;;;;;;;;;;;;;-140.72;0.00;52289.41;5080577;28;19917;-72
2023/07/19 08:48:16;;;;;;;;;;;;;;;-140.72;0.00;52358.41;5089029;28;20230;-72
2023/07/19 08:50:42;;;;;;;;;;;;;;;-140.72;0.00;52338.09;5080336;28;19916;-73
2023/07/19 08:53:16;;;;;;;;;;;;;;;-140.72;0.00;52311.72;5093842;28;19916;-72
2023/07/19 08:55:42;;;;;;;;;;;;;;;-140.72;0.00;52313.75;5084462;28;20411;-73
2023/07/19 08:58:07;;;;;;;;;;;;;;;-140.72;0.00;52297.53;5081221;28;19924;-73
2023/07/19 09:00:34;;;;;;;;;;;;;;;-140.72;0.00;52285.34;5073835;28;19939;-72
2023/07/19 09:02:59;;;;;;;;;;;;;;;-140.72;0.00;52256.94;5093587;28;19920;-73
2023/07/19 09:05:26;;;;;;;;;;;;;;;-140.72;0.00;52208.25;5069299;28;19939;-73
2023/07/19 09:07:51;;;;;;;;;;;;;;;-140.72;0.00;52261.00;5084289;28;19928;-72
2023/07/19 09:10:17;;;;;;;;;;;;;;;-140.72;0.00;52232.59;5080274;28;19924;-73
2023/07/19 09:12:43;;;;;;;;;;;;;;;-140.72;0.00;52269.13;5082846;28;19956;-73
2023/07/19 09:15:09;;;;;;;;;;;;;;;-140.72;0.00;52334.03;5073001;28;19916;-73
2023/07/19 09:17:35;;;;;;;;;;;;;;;-140.72;0.00;52309.69;5106535;28;20006;-73
2023/07/19 09:20:01;;;;;;;;;;;;;;;-140.72;0.00;52334.03;5087649;28;20302;-74
2023/07/19 09:22:30;;;;;;;;;;;;;;;-140.72;0.00;52311.72;5074566;28;19920;-73
2023/07/19 09:25:01;;;;;;;;;;;;;;;-140.72;0.00;52301.59;5075094;28;19917;-72
2023/07/19 09:27:26;;;;;;;;;;;;;;;-140.72;0.00;52258.97;5081541;28;19973;-72
2023/07/19 09:29:53;;;;;;;;;;;;;;;-140.72;0.00;52248.81;5091586;28;20675;-72
2023/07/19 09:32:19;;;;;;;;;;;;;;;-140.72;0.00;52273.19;5088126;28;19966;-73
2023/07/19 09:34:44;;;;;;;;;;;;;;;-140.72;0.00;52281.28;5093755;28;19938;-72
2023/07/19 09:37:10;;;;;;;;;;;;;;;-140.72;0.00;52232.59;5091570;28;19986;-72
2023/07/19 09:39:36;;;;;;;;;;;;;;;-140.72;0.00;52293.47;5107768;28;19983;-73
2023/07/19 09:42:03;;;;;;;;;;;;;;;-140.72;0.00;52338.09;5093167;28;19942;-73
2023/07/19 09:44:28;;;;;;;;;;;;;;;-140.72;0.00;52340.13;5075286;28;19916;-73
2023/07/19 09:46:53;;;;;;;;;;;;;;;-140.72;0.00;52338.09;5091911;28;19923;-73
2023/07/19 09:49:19;;;;;;;;;;;;;;;-140.72;0.00;52334.03;5081474;28;20377;-72
2023/07/19 09:51:46;;;;;;;;;;;;;;;-140.72;0.00;52281.28;5059306;28;20296;-73
2023/07/19 09:54:12;;;;;;;;;;;;;;;-140.72;0.00;52289.41;5077640;28;19924;-73
2023/07/19 09:56:38;;;;;;;;;;;;;;;-140.72;0.00;52340.13;5074531;28;19938;-73
2023/07/19 09:59:09;;;;;;;;;;;;;;;-140.72;0.00;52325.94;5085843;28;19917;-72
2023/07/19 10:01:35;;;;;;;;;;;;;;;-140.72;0.00;52334.03;5082003;28;19981;-72
2023/07/19 10:04:01;;;;;;;;;;;;;;;-140.72;0.00;52313.75;5080930;28;19927;-72
2023/07/19 10:06:29;;;;;;;;;;;;;;;-140.72;0.00;52283.31;5082088;28;20326;-72
2023/07/19 10:09:13;;;;;;;;;;;;;;;-140.72;0.00;52267.09;5087698;28;19916;-72
2023/07/19 10:11:42;;;;;;;;;;;;;;;-140.72;0.00;52293.47;5075683;28;19917;-72
2023/07/19 10:14:07;;;;;;;;;;;;;;;-140.72;0.00;52315.78;5088459;28;19917;-73
2023/07/19 10:16:35;;;;;;;;;;;;;;;-140.72;0.00;52303.59;5083336;28;19916;-72
2023/07/19 10:19:13;;;;;;;;;;;;;;;-140.72;0.00;52293.47;5087862;28;19916;-73
2023/07/19 10:21:43;;;;;;;;;;;;;;;-140.72;0.00;52309.69;5090802;28;19916;-72
2023/07/19 10:24:08;;;;;;;;;;;;;;;-140.72;0.00;52301.59;5092576;28;20223;-72
2023/07/19 10:26:36;;;;;;;;;;;;;;;-140.72;0.00;52285.34;5081215;28;19928;-73
2023/07/19 10:29:03;;;;;;;;;;;;;;;-140.72;0.00;52269.13;5108127;28;19927;-72
2023/07/19 10:31:28;;;;;;;;;;;;;;;-140.72;0.00;52248.81;5082255;28;20023;-71
2023/07/19 10:33:54;;;;;;;;;;;;;;;-140.72;0.00;52246.78;5073768;28;20455;-71
2023/07/19 10:36:20;;;;;;;;;;;;;;;-140.72;0.00;52183.91;5075525;28;19931;-71
2023/07/19 10:38:45;;;;;;;;;;;;;;;-140.72;0.00;52204.19;5080176;28;19987;-72
2023/07/19 10:41:12;;;;;;;;;;;;;;;-140.72;0.00;52159.56;5087561;28;19916;-73
2023/07/19 10:43:38;;;;;;;;;;;;;;;-140.72;0.00;52196.06;5083141;28;19916;-72
2023/07/19 10:46:04;;;;;;;;;;;;;;;-140.72;0.00;52230.56;5060938;28;19916;-72
2023/07/19 10:48:31;;;;;;;;;;;;;;;-140.72;0.00;52206.22;5092508;28;19920;-72
2023/07/19 10:50:57;;;;;;;;;;;;;;;-140.72;0.00;52254.91;5075188;28;19927;-72
2023/07/19 10:53:23;;;;;;;;;;;;;;;-140.72;0.00;52287.38;5103366;28;20002;-71
2023/07/19 10:55:51;;;;;;;;;;;;;;;-140.72;0.00;52252.88;5082157;28;19916;-72
2023/07/19 10:58:16;;;;;;;;;;;;;;;-140.72;0.00;52273.19;5087564;28;19916;-72
2023/07/19 11:00:43;;;;;;;;;;;;;;;-140.72;0.00;52240.72;5083588;28;19939;-72
2023/07/19 11:03:12;;;;;;;;;;;;;;;-140.72;0.00;52143.31;5089608;28;19970;-72
2023/07/19 11:05:39;;;;;;;;;;;;;;;-140.72;0.00;52196.06;5091877;28;19962;-72
2023/07/19 11:08:04;;;;;;;;;;;;;;;-140.72;0.00;52171.72;5075840;28;19917;-73
2023/07/19 11:10:30;;;;;;;;;;;;;;;-140.72;0.00;52179.84;5089762;28;20274;-73
2023/07/19 11:12:56;;;;;;;;;;;;;;;-140.72;0.00;52139.25;5085422;28;20415;-72
2023/07/19 11:15:21;;;;;;;;;;;;;;;-140.72;0.00;52045.94;5096882;28;20289;-72
2023/07/19 11:17:48;;;;;;;;;;;;;;;-140.72;0.00;52043.91;5084638;28;19950;-73
2023/07/19 11:20:26;;;;;;;;;;;;;;;-140.72;0.00;51981.00;5099409;28;19916;-72
2023/07/19 11:22:51;;;;;;;;;;;;;;;-140.72;0.00;51916.06;5103118;28;19916;-72
2023/07/19 11:25:17;;;;;;;;;;;;;;;-140.72;0.00;51976.94;5092815;28;19920;-72
2023/07/19 11:27:42;;;;;;;;;;;;;;;-140.72;0.00;52062.16;5077098;28;19920;-73
2023/07/19 11:30:07;;;;;;;;;;;;;;;-140.72;0.00;52139.25;5089481;28;19956;-72
2023/07/19 11:32:32;;;;;;;;;;;;;;;-140.72;0.00;52112.88;5077760;28;19923;-72
2023/07/19 11:34:59;;;;;;;;;;;;;;;-140.72;0.00;52159.56;5092230;28;20375;-73
2023/07/19 11:37:25;;;;;;;;;;;;;;;-140.72;0.00;52183.91;5084889;28;19916;-73
2023/07/19 11:39:51;;;;;;;;;;;;;;;-140.72;0.00;52096.66;5095256;28;20381;-72
2023/07/19 11:42:36;;;;;;;;;;;;;;;-140.72;0.00;52031.72;5082711;28;20369;-72
2023/07/19 11:45:07;;;;;;;;;;;;;;;-140.72;0.00;52035.78;5083908;28;20005;-72
2023/07/19 11:47:32;;;;;;;;;;;;;;;-140.72;0.00;52096.66;5090149;28;19916;-72
2023/07/19 11:49:57;;;;;;;;;;;;;;;-140.72;0.00;52049.97;5068453;28;19916;-72
2023/07/19 11:52:23;;;;;;;;;;;;;;;-140.72;0.00;52104.75;5087529;28;19923;-72
2023/07/19 11:54:48;;;;;;;;;;;;;;;-140.72;0.00;52131.16;5094915;28;19977;-72
2023/07/19 11:57:13;;;;;;;;;;;;;;;-140.72;0.00;52220.41;5094069;28;20305;-72
2023/07/19 11:59:39;;;;;;;;;;;;;;;-140.72;0.00;52194.03;5094467;28;19975;-72
2023/07/19 12:02:04;;;;;;;;;;;;;;;-140.72;0.00;52192.00;5094247;28;19916;-72
2023/07/19 12:04:31;;;;;;;;;;;;;;;-140.72;0.00;52163.59;5094609;28;19916;-73
2023/07/19 12:06:56;;;;;;;;;;;;;;;-140.72;0.00;52149.41;5073553;28;19951;-73
2023/07/19 12:09:22;;;;;;;;;;;;;;;-140.72;0.00;52183.91;5069111;28;19917;-71
2023/07/19 12:11:47;;;;;;;;;;;;;;;-140.72;0.00;52068.25;5091506;28;19916;-72
2023/07/19 12:14:13;;;;;;;;;;;;;;;-140.72;0.00;51944.47;5073512;28;19916;-72
2023/07/19 12:16:38;;;;;;;;;;;;;;;-140.72;0.00;51976.94;5082627;28;20013;-72
2023/07/19 12:19:03;;;;;;;;;;;;;;;-140.72;0.00;51893.75;5079709;28;19970;-73
2023/07/19 12:21:29;;;;;;;;;;;;;;;-140.72;0.00;51916.06;5101878;28;19927;-72
2023/07/19 12:23:54;;;;;;;;;;;;;;;-140.72;0.00;51845.06;5064142;28;19922;-72
2023/07/19 12:26:21;;;;;;;;;;;;;;;-140.72;0.00;51826.81;5094206;28;20015;-73
2023/07/19 12:28:46;;;;;;;;;;;;;;;-140.72;0.00;51989.13;5093647;28;20258;-72
2023/07/19 12:31:12;;;;;;;;;;;;;;;-140.72;0.00;52125.06;5092211;28;19916;-72
2023/07/19 12:33:39;;;;;;;;;;;;;;;-140.72;0.00;52110.84;5094388;28;20013;-72
2023/07/19 12:36:04;;;;;;;;;;;;;;;-140.72;0.00;52118.97;5095061;28;19938;-73